createdAt,value
2022-12-22T00:19:40.976Z,7.20
2022-12-22T00:25:19.062Z,7.30
2022-12-22T00:30:53.506Z,7.20
2022-12-22T00:33:39.939Z,7.30
2022-12-22T00:36:30.575Z,7.30
2022-12-22T00:42:03.724Z,7.30
2022-12-22T00:44:49.235Z,7.30
2022-12-22T00:47:43.775Z,7.40
2022-12-22T00:50:30.086Z,7.40
2022-12-22T00:53:17.417Z,7.40
2022-12-22T00:56:03.190Z,7.60
2022-12-22T00:58:48.900Z,7.70
2022-12-22T01:01:34.892Z,7.70
2022-12-22T01:04:22.033Z,7.80
2022-12-22T01:07:07.859Z,7.80
2022-12-22T01:09:54.581Z,7.80
2022-12-22T01:12:43.686Z,7.70
2022-12-22T01:15:33.490Z,7.70
2022-12-22T01:18:19.302Z,7.70
2022-12-22T01:21:06.361Z,7.70
2022-12-22T01:23:52.221Z,7.70
2022-12-22T01:26:37.638Z,7.70
2022-12-22T01:29:23.089Z,7.60
2022-12-22T01:32:08.978Z,7.50
2022-12-22T01:34:54.750Z,7.50
2022-12-22T01:37:41.996Z,7.40
2022-12-22T01:40:35.139Z,7.30
2022-12-22T01:46:39.774Z,7.20
2022-12-22T01:49:30.907Z,7.20
2022-12-22T01:52:16.980Z,7.30
2022-12-22T01:55:04.726Z,7.30
2022-12-22T01:57:52.577Z,7.40
2022-12-22T02:00:38.795Z,7.40
2022-12-22T02:03:34.845Z,7.50
2022-12-22T02:06:34.115Z,7.50
2022-12-22T02:09:42.102Z,7.50
2022-12-22T02:12:47.321Z,7.60
2022-12-22T02:15:44.616Z,7.70
2022-12-22T02:18:37.760Z,7.80
2022-12-22T02:21:29.852Z,7.80
2022-12-22T02:24:37.497Z,7.90
2022-12-22T02:27:28.436Z,7.90
2022-12-22T02:30:18.991Z,7.90
2022-12-22T02:33:09.781Z,7.90
2022-12-22T02:36:25.673Z,7.80
2022-12-22T02:39:28.693Z,7.90
2022-12-22T02:42:33.092Z,7.90
2022-12-22T02:45:37.076Z,8.00
2022-12-22T02:48:31.759Z,8.00
2022-12-22T02:51:24.499Z,8.00
2022-12-22T02:54:11.813Z,8.10
2022-12-22T02:57:00.135Z,8.10
2022-12-22T02:59:46.983Z,8.10
2022-12-22T03:02:34.898Z,8.30
2022-12-22T03:05:20.575Z,8.20
2022-12-22T03:08:08.772Z,8.30
2022-12-22T03:10:55.166Z,8.40
2022-12-22T03:16:27.916Z,8.30
2022-12-22T03:19:13.694Z,8.50
2022-12-22T03:24:45.169Z,8.50
2022-12-22T03:27:13.304Z,8.70
2022-12-22T03:29:41.412Z,8.60
2022-12-22T03:32:10.903Z,8.60
2022-12-22T03:37:07.421Z,8.40
2022-12-22T03:42:21.775Z,8.50
2022-12-22T03:45:07.328Z,8.60
2022-12-22T03:47:36.764Z,8.50
2022-12-22T03:52:33.877Z,8.40
2022-12-22T03:55:01.833Z,8.40
2022-12-22T03:57:29.980Z,8.30
2022-12-22T03:59:58.085Z,8.30
2022-12-22T04:02:26.316Z,8.40
2022-12-22T04:04:55.895Z,8.50
2022-12-22T04:07:23.989Z,8.50
2022-12-22T04:10:09.457Z,8.60
2022-12-22T04:12:55.881Z,8.60
2022-12-22T04:15:25.325Z,8.60
2022-12-22T04:17:54.513Z,8.60
2022-12-22T04:20:27.921Z,8.60
2022-12-22T04:22:57.378Z,8.60
2022-12-22T04:25:26.668Z,8.70
2022-12-22T04:27:54.799Z,8.60
2022-12-22T04:30:22.907Z,8.60
2022-12-22T04:32:51.007Z,8.50
2022-12-22T04:35:19.336Z,8.60
2022-12-22T04:37:48.804Z,8.60
2022-12-22T04:40:17.094Z,8.60
2022-12-22T04:42:45.195Z,8.60
2022-12-22T04:45:13.304Z,8.80
2022-12-22T04:47:41.458Z,8.50
2022-12-22T04:50:10.715Z,8.50
2022-12-22T04:52:39.356Z,8.50
2022-12-22T04:55:10.380Z,8.60
2022-12-22T04:57:40.926Z,8.60
2022-12-22T05:00:11.515Z,8.60
2022-12-22T05:02:39.733Z,8.60
2022-12-22T05:05:09.860Z,8.60
2022-12-22T05:07:38.455Z,8.60
2022-12-22T05:10:10.470Z,8.60
2022-12-22T05:12:57.026Z,8.50
2022-12-22T05:15:28.499Z,8.50
2022-12-22T05:17:57.443Z,8.40
2022-12-22T05:20:26.384Z,8.40
2022-12-22T05:22:56.375Z,8.40
2022-12-22T05:25:29.829Z,8.40
2022-12-22T05:27:58.727Z,8.30
2022-12-22T05:30:27.137Z,8.30
2022-12-22T05:32:55.296Z,8.30
2022-12-22T05:35:23.404Z,8.30
2022-12-22T05:37:51.525Z,8.30
2022-12-22T05:40:19.818Z,8.30
2022-12-22T05:42:49.319Z,8.30
2022-12-22T05:45:20.150Z,8.30
2022-12-22T05:47:51.937Z,8.30
2022-12-22T05:50:24.554Z,8.30
2022-12-22T05:52:52.859Z,8.30
2022-12-22T05:55:21.245Z,8.30
2022-12-22T05:57:50.843Z,8.30
2022-12-22T06:00:20.329Z,8.30
2022-12-22T06:02:48.586Z,8.30
2022-12-22T06:05:16.886Z,8.30
2022-12-22T06:07:44.983Z,8.30
2022-12-22T06:10:16.341Z,8.30
2022-12-22T06:12:45.007Z,8.40
2022-12-22T06:15:16.295Z,8.40
2022-12-22T06:17:45.515Z,8.40
2022-12-22T06:20:15.357Z,8.40
2022-12-22T06:22:43.606Z,8.40
2022-12-22T06:25:17.578Z,8.30
2022-12-22T06:27:46.716Z,8.40
2022-12-22T06:30:17.553Z,8.40
2022-12-22T06:32:45.681Z,8.40
2022-12-22T06:35:13.810Z,8.40
2022-12-22T06:37:42.556Z,8.40
2022-12-22T06:40:11.975Z,8.50
2022-12-22T06:43:00.826Z,8.50
2022-12-22T06:45:36.231Z,8.50
2022-12-22T06:48:04.781Z,8.50
2022-12-22T06:50:32.920Z,8.50
2022-12-22T06:53:01.466Z,8.60
2022-12-22T06:55:29.591Z,8.60
2022-12-22T06:57:57.791Z,8.60
2022-12-22T07:00:26.189Z,8.60
2022-12-22T07:02:56.024Z,8.70
2022-12-22T07:05:25.259Z,8.70
2022-12-22T07:07:53.986Z,8.70
2022-12-22T07:10:42.559Z,8.70
2022-12-22T07:13:20.408Z,8.70
2022-12-22T07:15:55.463Z,8.80
2022-12-22T07:18:30.708Z,8.80
2022-12-22T07:20:59.117Z,8.80
2022-12-22T07:25:56.112Z,8.70
2022-12-22T07:28:24.730Z,8.80
2022-12-22T07:30:54.197Z,8.80
2022-12-22T07:33:22.870Z,8.80
2022-12-22T07:36:03.932Z,8.80
2022-12-22T07:38:38.326Z,9.00
2022-12-22T07:41:28.887Z,8.90
2022-12-22T07:43:58.798Z,8.80
2022-12-22T07:46:29.406Z,8.80
2022-12-22T07:49:15.504Z,8.80
2022-12-22T07:51:45.469Z,8.80
2022-12-22T07:54:16.639Z,8.70
2022-12-22T08:04:16.745Z,8.20
2022-12-22T08:06:46.332Z,8.80
2022-12-22T08:26:54.959Z,8.70
2022-12-22T08:29:28.824Z,8.90
2022-12-22T08:49:34.080Z,8.70
2022-12-22T08:52:03.684Z,8.70
2022-12-22T08:54:51.729Z,8.80
2022-12-22T08:57:19.909Z,8.70
2022-12-22T08:59:48.671Z,8.70
2022-12-22T09:02:19.907Z,8.80
2022-12-22T09:04:48.688Z,8.80
2022-12-22T09:07:18.737Z,8.80
2022-12-22T09:09:46.870Z,8.80
2022-12-22T09:12:15.239Z,8.80
2022-12-22T09:14:43.372Z,8.90
2022-12-22T09:17:11.578Z,8.90
2022-12-22T09:22:09.300Z,8.90
2022-12-22T09:24:38.834Z,8.90
2022-12-22T09:29:37.915Z,8.50
2022-12-22T09:37:06.697Z,9.00
2022-12-22T09:39:34.862Z,9.10
2022-12-22T09:42:04.580Z,9.00
2022-12-22T09:44:35.775Z,9.10
2022-12-22T09:47:17.845Z,9.10
2022-12-22T09:49:46.878Z,9.10
2022-12-22T09:52:32.050Z,9.20
2022-12-22T09:55:00.615Z,9.20
2022-12-22T09:57:33.853Z,9.20
2022-12-22T10:00:14.454Z,9.20
2022-12-22T10:02:57.579Z,9.30
2022-12-22T10:05:39.220Z,9.40
2022-12-22T10:08:13.327Z,9.40
2022-12-22T10:10:42.077Z,9.40
2022-12-22T10:13:19.545Z,9.50
2022-12-22T10:15:48.408Z,9.50
2022-12-22T10:18:21.832Z,9.70
2022-12-22T10:21:10.743Z,9.70
2022-12-22T10:23:42.689Z,9.70
2022-12-22T10:26:27.955Z,9.80
2022-12-22T10:29:04.649Z,9.70
2022-12-22T10:31:35.531Z,9.70
2022-12-22T10:34:15.052Z,9.70
2022-12-22T10:36:48.188Z,9.80
2022-12-22T10:39:23.481Z,9.80
2022-12-22T10:41:56.181Z,9.80
2022-12-22T10:44:31.213Z,9.80
2022-12-22T10:47:01.860Z,9.90
2022-12-22T10:52:15.889Z,9.90
2022-12-22T10:54:46.029Z,10.00
2022-12-22T10:57:31.133Z,10.00
2022-12-22T11:00:04.056Z,10.10
2022-12-22T11:02:38.038Z,10.10
2022-12-22T11:05:09.889Z,10.20
2022-12-22T11:07:41.686Z,10.30
2022-12-22T11:10:19.592Z,10.30
2022-12-22T11:13:23.673Z,10.40
2022-12-22T11:16:03.529Z,10.50
2022-12-22T11:19:03.005Z,10.60
2022-12-22T11:21:46.336Z,10.60
2022-12-22T11:24:35.272Z,10.70
2022-12-22T11:27:24.157Z,10.70
2022-12-22T11:30:09.247Z,10.80
2022-12-22T11:33:08.357Z,10.70
2022-12-22T11:35:52.560Z,10.80
2022-12-22T11:38:45.734Z,10.80
2022-12-22T11:41:42.852Z,10.80
2022-12-22T11:44:46.757Z,10.90
2022-12-22T11:47:29.974Z,10.90
2022-12-22T11:51:00.992Z,11.10
2022-12-22T11:53:55.035Z,11.10
2022-12-22T11:56:26.132Z,11.00
2022-12-22T11:59:24.326Z,11.10
2022-12-22T12:02:36.077Z,11.10
2022-12-22T12:05:39.514Z,11.10
2022-12-22T12:08:23.411Z,11.10
2022-12-22T12:10:58.957Z,11.10
2022-12-22T12:13:39.654Z,11.20
2022-12-22T12:16:21.433Z,11.10
2022-12-22T12:19:28.817Z,11.00
2022-12-22T12:22:01.446Z,11.00
2022-12-22T12:24:55.603Z,11.10
2022-12-22T12:27:48.445Z,11.10
2022-12-22T12:33:16.749Z,10.70
2022-12-22T12:35:58.164Z,10.80
2022-12-22T12:44:14.893Z,10.60
2022-12-22T12:47:23.974Z,10.60
2022-12-22T12:50:40.201Z,10.30
2022-12-22T12:53:10.519Z,10.40
2022-12-22T12:56:09.619Z,10.30
2022-12-22T12:58:57.901Z,10.30
2022-12-22T13:01:59.241Z,10.20
2022-12-22T13:05:36.635Z,10.20
2022-12-22T13:08:21.219Z,10.20
2022-12-22T13:12:11.258Z,10.20
2022-12-22T13:14:59.240Z,10.30
2022-12-22T13:17:35.294Z,10.20
2022-12-22T13:20:04.872Z,10.20
2022-12-22T13:22:34.855Z,10.10
2022-12-22T13:25:04.944Z,10.10
2022-12-22T13:38:00.147Z,9.70
2022-12-22T13:40:31.952Z,10.00
2022-12-22T13:45:44.392Z,9.90
2022-12-22T13:48:19.650Z,10.00
2022-12-22T13:50:52.419Z,10.00
2022-12-22T13:56:27.044Z,9.90
2022-12-22T13:59:01.999Z,9.90
2022-12-22T14:01:30.820Z,9.90
2022-12-22T14:04:04.283Z,9.90
2022-12-22T14:06:36.363Z,9.90
2022-12-22T14:09:16.813Z,9.80
2022-12-22T14:11:52.044Z,9.90
2022-12-22T14:14:27.045Z,9.90
2022-12-22T14:16:58.546Z,9.90
2022-12-22T14:19:31.885Z,9.90
2022-12-22T14:22:08.330Z,9.80
2022-12-22T14:24:43.987Z,9.90
2022-12-22T14:27:22.246Z,10.80
2022-12-22T14:29:53.068Z,9.90
2022-12-22T14:32:42.447Z,9.90
2022-12-22T14:35:32.212Z,9.80
2022-12-22T14:38:22.818Z,9.70
2022-12-22T14:40:56.768Z,9.70
2022-12-22T14:43:31.527Z,9.80
2022-12-22T14:46:09.043Z,9.70
2022-12-22T14:51:09.549Z,9.70
2022-12-22T14:53:47.665Z,9.70
2022-12-22T14:56:18.497Z,9.70
2022-12-22T15:01:28.108Z,9.60
2022-12-22T15:04:06.264Z,9.60
2022-12-22T15:06:41.588Z,9.60
2022-12-22T15:10:13.196Z,9.70
2022-12-22T15:14:49.922Z,9.60
2022-12-22T15:17:26.536Z,9.70
2022-12-22T15:19:59.631Z,9.60
2022-12-22T15:22:27.777Z,9.60
2022-12-22T15:24:55.892Z,9.60
2022-12-22T15:27:23.994Z,9.60
2022-12-22T15:29:51.995Z,9.80
2022-12-22T15:32:21.452Z,9.50
2022-12-22T15:34:49.496Z,9.50
2022-12-22T15:37:17.730Z,9.40
2022-12-22T15:39:45.839Z,9.40
2022-12-22T15:42:13.922Z,9.40
2022-12-22T15:44:41.949Z,9.30
2022-12-22T15:47:13.565Z,9.30
2022-12-22T15:49:43.168Z,9.30
2022-12-22T15:52:14.644Z,9.20
2022-12-22T15:54:42.954Z,9.20
2022-12-22T15:57:14.527Z,9.10
2022-12-22T15:59:44.943Z,9.30
2022-12-22T16:09:48.527Z,8.70
2022-12-22T16:12:19.962Z,8.70
2022-12-22T16:14:52.049Z,8.70
2022-12-22T16:17:22.645Z,8.60
2022-12-22T16:19:52.282Z,8.60
2022-12-22T16:22:27.637Z,8.60
2022-12-22T16:24:55.821Z,8.50
2022-12-22T16:29:55.454Z,8.50
2022-12-22T16:45:22.650Z,8.50
2022-12-22T16:47:54.296Z,8.50
2022-12-22T16:50:32.605Z,8.40
2022-12-22T16:53:02.344Z,8.40
2022-12-22T16:55:31.521Z,8.30
2022-12-22T16:57:59.657Z,8.30
2022-12-22T17:00:31.520Z,8.30
2022-12-22T17:03:06.301Z,8.30
2022-12-22T17:05:44.704Z,8.30
2022-12-22T17:13:23.370Z,8.70
2022-12-22T17:15:51.475Z,8.00
2022-12-22T17:18:22.553Z,7.90
2022-12-22T17:20:56.658Z,7.90
2022-12-22T17:23:35.010Z,7.90
2022-12-22T17:26:07.936Z,7.80
2022-12-22T17:33:35.129Z,7.70
2022-12-22T17:36:05.180Z,7.60
2022-12-22T17:41:03.201Z,7.60
2022-12-22T17:43:31.291Z,7.50
2022-12-22T18:06:03.752Z,7.50
2022-12-22T20:12:31.385Z,6.70
2022-12-22T20:15:00.170Z,6.60
2022-12-22T20:17:28.846Z,6.60
2022-12-22T20:19:56.879Z,6.70
2022-12-22T20:22:25.558Z,6.70
2022-12-22T20:24:55.331Z,6.60
2022-12-22T20:27:30.841Z,6.60
2022-12-22T20:29:58.937Z,6.50
2022-12-22T20:32:28.448Z,6.50
2022-12-22T20:34:57.005Z,6.40
2022-12-22T20:37:25.516Z,6.40
2022-12-22T20:39:54.934Z,6.40
2022-12-22T20:42:25.583Z,6.40
2022-12-22T20:45:02.878Z,6.30
2022-12-22T20:47:33.220Z,6.50
2022-12-22T20:50:01.525Z,6.60
2022-12-22T20:52:29.547Z,6.70
2022-12-22T20:54:59.033Z,6.70
2022-12-22T20:57:28.617Z,6.80
2022-12-22T20:59:57.040Z,6.80
2022-12-22T21:02:28.955Z,6.80
2022-12-22T21:04:57.412Z,6.80
2022-12-22T21:07:26.017Z,6.80
2022-12-22T21:09:54.152Z,7.00
2022-12-22T21:12:23.600Z,7.10
2022-12-22T21:14:51.979Z,7.20
2022-12-22T21:17:20.676Z,7.20
2022-12-22T21:19:49.733Z,7.30
2022-12-22T21:22:17.852Z,7.30
2022-12-22T21:24:45.971Z,7.30
2022-12-22T21:27:21.063Z,7.40
2022-12-22T21:29:50.545Z,7.40
2022-12-22T21:32:18.662Z,7.40
2022-12-22T21:34:46.801Z,7.40
2022-12-22T21:37:20.315Z,7.40
2022-12-22T21:39:48.659Z,7.40
2022-12-22T21:42:17.887Z,7.50
2022-12-22T21:44:46.491Z,7.50
2022-12-22T21:47:21.060Z,7.50
2022-12-22T21:49:49.851Z,7.50
2022-12-22T21:52:17.954Z,7.50
2022-12-22T21:54:46.049Z,7.40
2022-12-22T21:57:16.850Z,7.50
2022-12-22T21:59:45.060Z,7.50
2022-12-22T22:02:19.234Z,7.50
2022-12-22T22:04:54.276Z,7.50
2022-12-22T22:07:23.398Z,7.50
2022-12-22T22:09:51.560Z,7.50
2022-12-22T22:12:36.846Z,7.50
2022-12-22T22:15:07.119Z,7.50
2022-12-22T22:17:36.695Z,7.50
2022-12-22T22:20:07.805Z,7.50
2022-12-22T22:22:35.950Z,7.50
2022-12-22T22:25:04.187Z,7.50
2022-12-22T22:27:32.321Z,7.50
2022-12-22T22:30:00.417Z,7.50
2022-12-22T22:32:28.895Z,7.50
2022-12-22T22:34:58.378Z,7.50
2022-12-22T22:37:26.614Z,7.50
2022-12-22T22:39:54.713Z,7.50
2022-12-22T22:42:23.008Z,7.50
2022-12-22T22:44:51.110Z,7.50
2022-12-22T22:47:19.219Z,7.50
2022-12-22T22:49:47.356Z,7.50
2022-12-22T22:52:16.913Z,7.50
2022-12-22T22:54:45.281Z,7.60
2022-12-22T22:57:13.495Z,7.60
2022-12-22T22:59:41.601Z,7.60
2022-12-22T23:02:10.730Z,7.60
2022-12-22T23:04:39.016Z,7.60
2022-12-22T23:07:07.102Z,7.60
2022-12-22T23:09:36.637Z,7.60
2022-12-22T23:12:05.462Z,7.70
2022-12-22T23:14:33.773Z,7.70
2022-12-22T23:17:01.917Z,7.80
2022-12-22T23:19:30.123Z,7.80
2022-12-22T23:21:58.312Z,7.80
2022-12-22T23:24:26.650Z,7.70
2022-12-22T23:26:56.130Z,7.70
2022-12-22T23:29:24.303Z,7.70
2022-12-22T23:31:52.558Z,7.80
2022-12-22T23:34:20.874Z,7.80
2022-12-22T23:36:49.069Z,7.80
2022-12-22T23:39:17.220Z,7.90
2022-12-22T23:41:45.383Z,7.80
2022-12-22T23:44:14.937Z,7.80
2022-12-22T23:46:43.235Z,7.80
2022-12-22T23:49:13.106Z,7.70
2022-12-22T23:51:41.221Z,7.80
2022-12-22T23:54:09.387Z,7.80
2022-12-22T23:56:37.572Z,7.80
2022-12-22T23:59:05.681Z,7.80
